createdAt,value
2022-11-17T00:02:39.012Z,6.00
2022-11-17T00:07:43.128Z,7.40
2022-11-17T00:12:45.514Z,7.07
2022-11-17T00:17:47.930Z,5.83
2022-11-17T00:22:51.418Z,6.23
2022-11-17T00:27:53.659Z,8.27
2022-11-17T00:33:01.172Z,8.20
2022-11-17T00:38:04.629Z,9.17
2022-11-17T00:43:06.778Z,8.13
2022-11-17T00:48:08.730Z,8.83
2022-11-17T00:53:12.161Z,7.93
2022-11-17T00:58:13.993Z,8.13
2022-11-17T01:03:16.109Z,7.67
2022-11-17T01:08:19.799Z,10.80
2022-11-17T01:13:22.582Z,10.57
2022-11-17T01:18:24.901Z,8.77
2022-11-17T01:23:28.567Z,9.67
2022-11-17T01:28:30.990Z,9.00
2022-11-17T01:33:34.296Z,9.20
2022-11-17T01:38:38.177Z,8.30
2022-11-17T01:43:43.637Z,7.70
2022-11-17T01:48:46.578Z,11.93
2022-11-17T01:53:51.212Z,9.53
2022-11-17T01:58:58.746Z,9.03
2022-11-17T02:04:01.747Z,10.43
2022-11-17T02:09:05.005Z,8.43
2022-11-17T02:14:08.642Z,8.17
2022-11-17T02:19:15.457Z,8.63
2022-11-17T02:24:32.735Z,9.00
2022-11-17T02:29:42.319Z,8.30
2022-11-17T02:34:50.795Z,9.13
2022-11-17T02:39:59.460Z,10.20
2022-11-17T02:45:05.828Z,9.50
2022-11-17T02:50:11.003Z,11.63
2022-11-17T02:55:14.350Z,9.27
2022-11-17T03:00:20.378Z,11.50
2022-11-17T03:05:29.952Z,11.07
2022-11-17T03:10:45.616Z,9.90
2022-11-17T03:15:55.079Z,8.90
2022-11-17T03:21:06.525Z,9.93
2022-11-17T03:26:12.713Z,10.07
2022-11-17T03:31:18.344Z,9.23
2022-11-17T03:36:27.409Z,9.47
2022-11-17T03:41:33.305Z,9.73
2022-11-17T03:46:39.261Z,8.37
2022-11-17T03:51:41.287Z,9.37
2022-11-17T03:56:52.079Z,7.87
2022-11-17T04:01:56.168Z,10.87
2022-11-17T04:06:58.449Z,9.40
2022-11-17T04:12:00.614Z,10.53
2022-11-17T04:17:04.337Z,9.30
2022-11-17T04:22:06.473Z,9.70
2022-11-17T04:27:08.676Z,10.20
2022-11-17T04:32:11.806Z,9.30
2022-11-17T04:37:13.972Z,10.93
2022-11-17T04:42:15.923Z,9.27
2022-11-17T04:47:19.501Z,8.33
2022-11-17T04:52:25.538Z,8.67
2022-11-17T04:57:32.308Z,10.13
2022-11-17T05:02:35.400Z,12.67
2022-11-17T05:07:37.284Z,10.43
2022-11-17T05:12:39.363Z,11.20
2022-11-17T05:17:43.091Z,11.47
2022-11-17T05:22:44.784Z,11.20
2022-11-17T05:27:49.741Z,13.17
2022-11-17T05:32:54.252Z,10.50
2022-11-17T05:37:56.078Z,9.53
2022-11-17T05:42:57.836Z,11.57
2022-11-17T05:48:00.947Z,10.83
2022-11-17T05:53:04.047Z,11.30
2022-11-17T05:58:12.876Z,11.27
2022-11-17T06:03:20.267Z,14.30
2022-11-17T06:08:22.809Z,10.83
2022-11-17T06:13:24.631Z,10.47
2022-11-17T06:18:32.219Z,12.80
2022-11-17T06:23:36.460Z,8.90
2022-11-17T06:28:41.075Z,12.93
2022-11-17T06:33:45.397Z,11.60
2022-11-17T06:38:47.173Z,10.60
2022-11-17T06:43:48.955Z,11.20
2022-11-17T06:48:54.564Z,8.63
2022-11-17T06:53:56.636Z,8.37
2022-11-17T06:58:58.389Z,8.07
2022-11-17T07:04:01.561Z,9.17
2022-11-17T07:09:03.961Z,10.63
2022-11-17T07:14:06.069Z,9.57
2022-11-17T07:19:10.115Z,8.20
2022-11-17T07:24:12.405Z,8.03
2022-11-17T07:29:14.065Z,8.83
2022-11-17T07:34:17.487Z,9.47
2022-11-17T07:39:21.631Z,8.23
2022-11-17T07:44:24.257Z,8.47
2022-11-17T07:49:27.823Z,5.70
2022-11-17T07:54:29.634Z,7.40
2022-11-17T07:59:31.675Z,7.03
2022-11-17T08:04:35.179Z,6.23
2022-11-17T08:09:37.372Z,7.47
2022-11-17T08:14:39.101Z,9.90
2022-11-17T08:19:42.797Z,7.53
2022-11-17T08:24:44.959Z,9.27
2022-11-17T08:29:46.645Z,7.00
2022-11-17T08:34:50.185Z,10.10
2022-11-17T08:39:52.037Z,7.97
2022-11-17T08:44:54.098Z,8.53
2022-11-17T08:49:57.247Z,7.80
2022-11-17T08:54:59.488Z,8.50
2022-11-17T09:00:01.990Z,8.97
2022-11-17T09:05:07.093Z,7.43
2022-11-17T09:10:09.963Z,9.67
2022-11-17T09:15:11.681Z,9.63
2022-11-17T09:20:16.576Z,10.00
2022-11-17T09:25:18.927Z,9.07
2022-11-17T09:30:21.167Z,11.60
2022-11-17T09:35:25.498Z,11.20
2022-11-17T09:40:31.868Z,7.73
2022-11-17T09:45:39.889Z,8.83
2022-11-17T09:50:45.116Z,8.70
2022-11-17T09:55:52.077Z,10.47
2022-11-17T10:00:55.844Z,9.93
2022-11-17T10:06:01.732Z,9.50
2022-11-17T10:11:09.861Z,8.60
2022-11-17T10:16:14.195Z,11.47
2022-11-17T10:21:18.091Z,13.07
2022-11-17T10:26:19.821Z,10.47
2022-11-17T10:31:22.282Z,9.40
2022-11-17T10:36:28.764Z,12.37
2022-11-17T10:41:39.071Z,10.47
2022-11-17T10:46:58.919Z,14.30
2022-11-17T10:52:13.990Z,13.13
2022-11-17T10:57:19.914Z,12.83
2022-11-17T11:02:29.220Z,13.53
2022-11-17T11:07:32.345Z,15.50
2022-11-17T11:12:43.165Z,12.77
2022-11-17T11:17:45.277Z,10.50
2022-11-17T11:22:57.583Z,12.50
2022-11-17T11:28:11.984Z,12.53
2022-11-17T11:33:28.361Z,11.50
2022-11-17T11:38:44.988Z,10.23
2022-11-17T11:43:59.046Z,13.80
2022-11-17T11:49:12.349Z,10.07
2022-11-17T11:54:23.789Z,12.77
2022-11-17T11:59:36.969Z,9.47
2022-11-17T12:04:44.096Z,10.30
2022-11-17T12:09:58.894Z,14.50
2022-11-17T12:15:29.968Z,11.47
2022-11-17T12:20:56.966Z,8.00
2022-11-17T12:26:01.998Z,9.27
2022-11-17T12:31:10.126Z,10.53
2022-11-17T12:36:30.166Z,10.73
2022-11-17T12:42:06.603Z,10.00
2022-11-17T12:47:13.738Z,11.80
2022-11-17T12:52:24.859Z,10.53
2022-11-17T12:57:32.565Z,8.60
2022-11-17T13:02:59.368Z,10.00
2022-11-17T13:08:23.295Z,8.73
2022-11-17T13:13:26.677Z,7.53
2022-11-17T13:18:32.469Z,7.77
2022-11-17T13:23:34.570Z,10.50
2022-11-17T13:28:38.090Z,9.73
2022-11-17T13:33:40.646Z,6.47
2022-11-17T13:38:48.278Z,8.80
2022-11-17T13:43:52.746Z,8.00
2022-11-17T13:48:54.479Z,9.43
2022-11-17T13:54:02.289Z,8.87
2022-11-17T13:59:22.033Z,9.03
2022-11-17T14:04:24.725Z,7.27
2022-11-17T14:09:28.071Z,7.00
2022-11-17T14:14:36.603Z,6.20
2022-11-17T14:19:38.946Z,7.30
2022-11-17T14:24:41.148Z,9.27
2022-11-17T14:29:44.839Z,8.70
2022-11-17T14:34:47.105Z,7.27
2022-11-17T14:39:49.230Z,7.10
2022-11-17T14:44:52.642Z,8.43
2022-11-17T14:49:54.862Z,9.03
2022-11-17T14:54:57.059Z,8.37
2022-11-17T15:00:01.791Z,10.97
2022-11-17T15:05:04.621Z,7.93
2022-11-17T15:10:07.616Z,11.03
2022-11-17T15:15:11.970Z,9.47
2022-11-17T15:20:14.201Z,9.57
2022-11-17T15:25:16.603Z,11.90
2022-11-17T15:30:20.830Z,11.03
2022-11-17T15:35:22.646Z,12.30
2022-11-17T15:40:24.690Z,9.73
2022-11-17T15:45:28.030Z,10.93
2022-11-17T15:50:30.245Z,10.63
2022-11-17T15:55:33.881Z,13.67
2022-11-17T16:00:37.107Z,12.63
2022-11-17T16:05:38.838Z,15.13
2022-11-17T16:10:40.958Z,10.27
2022-11-17T16:15:47.693Z,11.17
2022-11-17T16:20:50.283Z,12.67
2022-11-17T16:25:52.137Z,14.10
2022-11-17T16:30:55.443Z,13.03
2022-11-17T16:36:04.566Z,16.03
2022-11-17T16:41:06.506Z,14.70
2022-11-17T16:46:15.613Z,13.07
2022-11-17T16:51:18.986Z,14.53
2022-11-17T16:56:20.820Z,14.93
2022-11-17T17:01:26.050Z,15.13
2022-11-17T17:06:28.436Z,14.43
2022-11-17T17:11:31.201Z,16.77
2022-11-17T17:16:36.669Z,14.60
2022-11-17T17:21:39.316Z,12.70
2022-11-17T17:26:41.675Z,10.63
2022-11-17T17:31:45.171Z,13.47
2022-11-17T17:36:47.278Z,13.73
2022-11-17T17:41:49.080Z,13.07
2022-11-17T17:46:52.200Z,13.60
2022-11-17T17:51:53.939Z,12.50
2022-11-17T17:56:55.912Z,14.10
2022-11-17T18:01:58.998Z,13.67
2022-11-17T18:07:00.788Z,12.40
2022-11-17T18:12:02.543Z,11.33
2022-11-17T18:17:05.788Z,13.23
2022-11-17T18:22:07.544Z,10.90
2022-11-17T18:27:09.619Z,14.70
2022-11-17T18:32:15.844Z,12.67
2022-11-17T18:37:17.595Z,13.73
2022-11-17T18:42:19.363Z,12.13
2022-11-17T18:47:22.493Z,14.30
2022-11-17T18:52:28.583Z,13.50
2022-11-17T18:57:34.332Z,13.13
2022-11-17T19:02:37.382Z,14.53
2022-11-17T19:07:39.166Z,14.17
2022-11-17T19:12:41.393Z,13.20
2022-11-17T19:17:44.642Z,15.27
2022-11-17T19:22:46.334Z,13.27
2022-11-17T19:27:48.122Z,18.33
2022-11-17T19:32:51.985Z,17.63
2022-11-17T19:37:55.950Z,19.13
2022-11-17T19:42:57.839Z,20.20
2022-11-17T19:48:01.828Z,16.50
2022-11-17T19:53:03.938Z,21.20
2022-11-17T19:58:06.089Z,18.83
2022-11-17T20:03:09.868Z,16.33
2022-11-17T20:08:12.542Z,22.73
2022-11-17T20:13:14.800Z,21.77
2022-11-17T20:18:18.511Z,19.13
2022-11-17T20:23:22.074Z,21.27
2022-11-17T20:28:24.827Z,19.50
2022-11-17T20:33:30.032Z,20.83
2022-11-17T20:38:32.575Z,21.90
2022-11-17T20:43:35.318Z,19.30
2022-11-17T20:48:38.476Z,20.53
2022-11-17T20:53:41.113Z,18.10
2022-11-17T20:58:43.543Z,18.60
2022-11-17T21:03:47.696Z,20.10
2022-11-17T21:08:49.735Z,20.67
2022-11-17T21:13:51.592Z,23.17
2022-11-17T21:18:54.797Z,42.30
2022-11-17T21:23:56.671Z,27.90
2022-11-17T21:29:04.818Z,31.27
2022-11-17T21:34:15.213Z,21.83
2022-11-17T21:39:17.377Z,23.30
2022-11-17T21:44:20.076Z,21.90
2022-11-17T21:49:23.217Z,23.97
2022-11-17T21:54:25.133Z,22.37
2022-11-17T21:59:26.848Z,26.27
2022-11-17T22:04:30.016Z,22.07
2022-11-17T22:09:31.685Z,23.60
2022-11-17T22:14:33.798Z,24.97
2022-11-17T22:19:37.283Z,22.30
2022-11-17T22:24:39.836Z,22.43
2022-11-17T22:29:42.146Z,21.97
2022-11-17T22:34:45.863Z,26.93
2022-11-17T22:39:48.001Z,21.90
2022-11-17T22:44:50.130Z,27.67
2022-11-17T22:49:53.569Z,27.30
2022-11-17T22:54:55.707Z,25.97
2022-11-17T22:59:57.763Z,27.73
2022-11-17T23:05:01.254Z,23.10
2022-11-17T23:10:03.511Z,24.07
2022-11-17T23:15:07.001Z,22.37
2022-11-17T23:20:12.117Z,23.30
2022-11-17T23:25:14.291Z,21.23
2022-11-17T23:30:17.319Z,23.43
2022-11-17T23:35:21.093Z,24.33
2022-11-17T23:40:22.856Z,25.50
2022-11-17T23:45:24.946Z,23.80
2022-11-17T23:50:27.977Z,22.60
2022-11-17T23:55:29.722Z,23.17
